createdAt,value
2024-04-30T00:04:00.874Z,23.5
2024-04-30T00:09:03.393Z,23.5
2024-04-30T00:14:05.803Z,23.4
2024-04-30T00:19:08.275Z,23.5
2024-04-30T00:24:10.755Z,23.5
2024-04-30T00:29:13.174Z,23.5
2024-04-30T00:34:15.622Z,23.5
2024-04-30T00:39:18.058Z,23.5
2024-04-30T00:44:20.486Z,23.5
2024-04-30T00:49:22.932Z,23.5
2024-04-30T00:54:25.371Z,23.6
2024-04-30T00:59:27.776Z,23.5
2024-04-30T01:04:30.307Z,23.5
2024-04-30T01:09:32.827Z,23.6
2024-04-30T01:14:35.245Z,23.5
2024-04-30T01:19:37.633Z,23.5
2024-04-30T01:24:40.170Z,23.6
2024-04-30T01:29:42.575Z,23.6
2024-04-30T01:34:44.975Z,23.6
2024-04-30T01:39:47.398Z,23.6
2024-04-30T01:44:49.838Z,23.6
2024-04-30T01:49:52.239Z,23.6
2024-04-30T01:54:54.646Z,23.6
2024-04-30T01:59:57.088Z,23.6
2024-04-30T02:10:02.286Z,23.6
2024-04-30T02:15:04.719Z,23.6
2024-04-30T02:20:07.117Z,23.6
2024-04-30T02:25:09.550Z,23.6
2024-04-30T02:30:11.973Z,23.6
2024-04-30T02:35:14.388Z,23.6
2024-04-30T02:40:16.843Z,23.6
2024-04-30T02:45:19.291Z,23.6
2024-04-30T02:50:21.684Z,23.6
2024-04-30T02:55:24.098Z,23.6
2024-04-30T03:00:26.559Z,23.6
2024-04-30T03:05:29.002Z,23.6
2024-04-30T03:10:31.482Z,23.6
2024-04-30T03:15:33.990Z,23.6
2024-04-30T03:20:36.391Z,23.6
2024-04-30T03:25:38.870Z,23.6
2024-04-30T03:30:41.298Z,23.6
2024-04-30T03:35:43.702Z,23.6
2024-04-30T03:40:46.136Z,23.6
2024-04-30T03:45:08.031Z,23.6
2024-04-30T03:50:10.415Z,23.5
2024-04-30T03:55:12.815Z,23.5
2024-04-30T04:00:15.253Z,23.4
2024-04-30T04:05:17.683Z,23.4
2024-04-30T04:10:20.095Z,23.4
2024-04-30T04:15:22.613Z,23.5
2024-04-30T04:20:25.042Z,23.5
2024-04-30T04:25:27.480Z,23.5
2024-04-30T04:30:29.936Z,23.5
2024-04-30T04:35:32.465Z,23.6
2024-04-30T04:40:34.887Z,23.5
2024-04-30T04:45:37.472Z,23.6
2024-04-30T04:50:39.898Z,23.6
2024-04-30T04:55:42.316Z,23.6
2024-04-30T05:00:44.763Z,23.5
2024-04-30T05:05:47.226Z,23.5
2024-04-30T05:10:49.890Z,23.6
2024-04-30T05:15:52.421Z,23.6
2024-04-30T05:20:54.838Z,23.5
2024-04-30T05:25:57.268Z,23.5
2024-04-30T05:30:59.667Z,23.5
2024-04-30T05:36:02.112Z,23.5
2024-04-30T05:41:04.579Z,23.5
2024-04-30T05:46:07.060Z,23.5
2024-04-30T05:51:09.520Z,23.5
2024-04-30T05:56:11.934Z,23.5
2024-04-30T06:01:14.524Z,23.5
2024-04-30T06:06:17.214Z,23.5
2024-04-30T06:11:19.644Z,23.5
2024-04-30T06:16:22.124Z,23.6
2024-04-30T06:21:30.324Z,23.5
2024-04-30T06:26:39.044Z,23.6
2024-04-30T06:31:41.480Z,23.5
2024-04-30T06:36:43.928Z,23.6
2024-04-30T06:41:46.325Z,23.6
2024-04-30T06:46:48.735Z,23.6
2024-04-30T06:51:51.182Z,23.6
2024-04-30T06:56:53.618Z,23.6
2024-04-30T07:01:56.037Z,23.6
2024-04-30T07:06:58.495Z,23.6
2024-04-30T07:12:00.893Z,23.5
2024-04-30T07:17:07.359Z,23.6
2024-04-30T07:22:11.277Z,23.5
2024-04-30T07:27:13.735Z,23.5
2024-04-30T07:32:16.154Z,23.6
2024-04-30T07:37:18.625Z,23.5
2024-04-30T07:42:21.049Z,23.6
2024-04-30T07:47:23.514Z,23.6
2024-04-30T07:52:26.396Z,23.6
2024-04-30T07:57:28.828Z,23.6
2024-04-30T08:02:31.316Z,23.6
2024-04-30T08:07:33.990Z,23.6
2024-04-30T08:12:36.663Z,23.6
2024-04-30T08:17:39.478Z,23.6
2024-04-30T08:27:47.435Z,23.6
2024-04-30T08:32:49.885Z,23.6
2024-04-30T08:37:54.846Z,23.6
2024-04-30T08:43:02.942Z,23.6
2024-04-30T08:48:05.417Z,23.6
2024-04-30T08:53:07.903Z,23.6
2024-04-30T08:58:10.311Z,23.6
2024-04-30T09:03:12.894Z,23.6
2024-04-30T09:08:15.354Z,23.6
2024-04-30T09:13:17.793Z,23.6
2024-04-30T09:18:20.291Z,23.6
2024-04-30T09:23:22.739Z,23.7
2024-04-30T09:28:25.173Z,23.7
2024-04-30T09:33:27.678Z,23.7
2024-04-30T09:38:30.192Z,23.7
2024-04-30T09:43:32.567Z,23.7
2024-04-30T09:48:34.999Z,23.7
2024-04-30T09:53:37.432Z,23.7
2024-04-30T09:58:39.914Z,23.7
2024-04-30T10:03:42.426Z,23.7
2024-04-30T10:08:44.832Z,23.7
2024-04-30T10:13:47.257Z,23.7
2024-04-30T10:18:49.809Z,23.6
2024-04-30T10:23:52.241Z,23.6
2024-04-30T10:28:54.680Z,23.7
2024-04-30T10:33:57.139Z,23.7
2024-04-30T10:38:59.627Z,23.7
2024-04-30T10:47:36.343Z,23.6
2024-04-30T10:52:38.815Z,23.6
2024-04-30T10:57:41.247Z,23.6
2024-04-30T11:02:44.843Z,23.7
2024-04-30T11:07:48.281Z,23.7
2024-04-30T11:12:50.698Z,23.7
2024-04-30T11:17:53.132Z,23.7
2024-04-30T11:22:55.593Z,23.7
2024-04-30T11:27:58.020Z,23.7
2024-04-30T11:33:00.504Z,23.7
2024-04-30T11:38:03.120Z,23.7
2024-04-30T11:43:05.818Z,23.7
2024-04-30T11:48:08.514Z,23.7
2024-04-30T11:53:11.087Z,23.7
2024-04-30T11:58:13.603Z,23.7
2024-04-30T12:03:16.067Z,23.7
2024-04-30T12:08:18.484Z,23.7
2024-04-30T12:13:20.926Z,23.7
2024-04-30T12:18:23.411Z,23.7
2024-04-30T12:23:25.870Z,23.7
2024-04-30T12:28:28.348Z,23.7
2024-04-30T12:33:30.796Z,23.7
2024-04-30T12:38:33.284Z,23.7
2024-04-30T12:43:35.771Z,23.8
2024-04-30T12:48:38.284Z,23.7
2024-04-30T12:53:40.742Z,23.7
2024-04-30T12:58:43.205Z,23.8
2024-04-30T13:03:45.638Z,23.7
2024-04-30T13:08:48.084Z,23.8
2024-04-30T13:13:50.542Z,23.7
2024-04-30T13:18:53.044Z,23.7
2024-04-30T13:23:55.490Z,23.8
2024-04-30T13:28:57.924Z,23.8
2024-04-30T13:34:00.342Z,23.8
2024-04-30T13:39:02.795Z,23.7
2024-04-30T13:44:05.368Z,23.8
2024-04-30T13:49:07.781Z,23.7
2024-04-30T13:54:10.219Z,23.8
2024-04-30T13:59:12.647Z,23.8
2024-04-30T14:04:15.109Z,23.7
2024-04-30T14:09:17.569Z,23.8
2024-04-30T14:14:20.016Z,23.8
2024-04-30T14:19:22.472Z,23.8
2024-04-30T14:24:24.941Z,23.8
2024-04-30T14:29:27.350Z,23.8
2024-04-30T14:34:29.823Z,23.8
2024-04-30T14:39:32.289Z,23.8
2024-04-30T14:44:34.693Z,23.8
2024-04-30T14:52:07.573Z,23.8
2024-04-30T14:57:10.041Z,23.9
2024-04-30T15:02:12.462Z,23.9
2024-04-30T15:07:14.878Z,23.8
2024-04-30T15:12:17.287Z,23.7
2024-04-30T15:17:19.784Z,23.9
2024-04-30T15:22:22.306Z,23.9
2024-04-30T15:27:24.709Z,23.9
2024-04-30T15:32:27.180Z,23.9
2024-04-30T15:37:29.641Z,23.9
2024-04-30T15:42:32.061Z,23.8
2024-04-30T15:47:34.502Z,23.8
2024-04-30T15:52:36.967Z,23.8
2024-04-30T15:57:39.409Z,23.8
2024-04-30T16:02:41.851Z,23.9
2024-04-30T16:07:44.326Z,23.8
2024-04-30T16:12:46.751Z,24
2024-04-30T16:17:51.613Z,23.9
2024-04-30T16:22:54.503Z,23.8
2024-04-30T16:27:56.937Z,24
2024-04-30T16:32:59.401Z,24
2024-04-30T16:38:01.825Z,23.9
2024-04-30T16:43:04.305Z,23.9
2024-04-30T16:48:07.072Z,23.9
2024-04-30T16:53:09.652Z,23.9
2024-04-30T16:58:12.076Z,24
2024-04-30T17:03:14.535Z,24.1
2024-04-30T17:08:16.962Z,23.9
2024-04-30T17:13:19.433Z,24.1
2024-04-30T17:18:21.882Z,24.1
2024-04-30T17:23:24.302Z,24.1
2024-04-30T17:28:26.717Z,24.1
2024-04-30T17:33:29.165Z,24.1
2024-04-30T17:38:31.608Z,24
2024-04-30T17:43:34.181Z,24.1
2024-04-30T17:48:36.697Z,24.1
2024-04-30T17:53:39.219Z,24
2024-04-30T17:58:41.631Z,24
2024-04-30T18:03:44.077Z,24.1
2024-04-30T18:08:46.514Z,24.1
2024-04-30T18:13:48.962Z,24.1
2024-04-30T18:18:51.513Z,24.1
2024-04-30T18:23:54.027Z,24.2
2024-04-30T18:28:56.455Z,24.2
2024-04-30T18:33:59.084Z,24
2024-04-30T18:39:01.593Z,24.1
2024-04-30T18:44:04.111Z,24
2024-04-30T18:49:06.692Z,24.1
2024-04-30T18:54:09.201Z,24.1
2024-04-30T18:59:11.663Z,24
2024-04-30T19:04:14.102Z,24
2024-04-30T19:09:16.558Z,24
2024-04-30T19:14:18.975Z,24.2
2024-04-30T19:19:21.693Z,24.2
2024-04-30T19:24:24.256Z,24.2
2024-04-30T19:29:26.665Z,24
2024-04-30T19:34:29.113Z,24.1
2024-04-30T19:39:31.701Z,24.2
2024-04-30T19:44:34.115Z,24.1
2024-04-30T19:49:36.583Z,24.1
2024-04-30T19:54:39.161Z,24.1
2024-04-30T19:59:41.648Z,24.2
2024-04-30T20:04:44.139Z,24.2
2024-04-30T20:09:46.623Z,24.1
2024-04-30T20:14:49.073Z,24.1
2024-04-30T20:19:51.495Z,24.1
2024-04-30T20:24:53.939Z,24.2
2024-04-30T20:29:56.417Z,24.1
2024-04-30T20:34:58.828Z,24.1
2024-04-30T20:40:01.308Z,24.2
2024-04-30T20:45:03.799Z,24.2
2024-04-30T20:50:06.521Z,24.1
2024-04-30T20:55:08.927Z,24.1
2024-04-30T21:00:11.388Z,24.1
2024-04-30T21:05:13.797Z,24.1
2024-04-30T21:10:16.222Z,24.1
2024-04-30T21:15:18.715Z,24.2
2024-04-30T21:20:21.126Z,24.3
2024-04-30T21:25:23.528Z,24.2
2024-04-30T21:35:28.456Z,24.2
2024-04-30T21:40:30.936Z,24.2
2024-04-30T21:45:33.372Z,24.3
2024-04-30T21:50:35.801Z,24.2
2024-04-30T21:55:38.242Z,24.2
2024-04-30T22:00:40.719Z,24.2
2024-04-30T22:05:43.181Z,24.3
2024-04-30T22:10:45.604Z,24.3
2024-04-30T22:15:48.050Z,24.3
2024-04-30T22:20:50.500Z,24.3
2024-04-30T22:25:52.887Z,24.2
2024-04-30T22:30:55.325Z,24.2
2024-04-30T22:35:57.766Z,24.2
2024-04-30T22:41:00.167Z,24.3
2024-04-30T22:46:02.629Z,24.3
2024-04-30T22:51:05.074Z,24.4
2024-04-30T22:56:07.472Z,24.4
2024-04-30T23:01:09.988Z,24.4
2024-04-30T23:06:12.583Z,24.2
2024-04-30T23:11:15.093Z,24.4
2024-04-30T23:16:17.526Z,24.4
2024-04-30T23:21:19.952Z,24.4
2024-04-30T23:26:22.396Z,24.3
2024-04-30T23:31:24.811Z,24.4
2024-04-30T23:36:27.296Z,24.4
2024-04-30T23:41:29.715Z,24.4
2024-04-30T23:46:32.143Z,24.4
2024-04-30T23:51:34.618Z,24.5
2024-04-30T23:56:37.061Z,24.5
